sensor_id;sensor_type;location;lat;lon;timestamp;P1;durP1;ratioP1;P2;durP2;ratioP2
5077;SDS011;2557;51.390;7.494;2023-03-20T00:00:35;54.90;;;30.20;;
5077;SDS011;2557;51.390;7.494;2023-03-20T00:03:02;58.80;;;31.10;;
5077;SDS011;2557;51.390;7.494;2023-03-20T00:05:29;58.47;;;33.10;;
5077;SDS011;2557;51.390;7.494;2023-03-20T00:07:56;56.67;;;31.30;;
5077;SDS011;2557;51.390;7.494;2023-03-20T00:10:28;57.57;;;33.57;;
5077;SDS011;2557;51.390;7.494;2023-03-20T00:12:55;60.73;;;33.93;;
5077;SDS011;2557;51.390;7.494;2023-03-20T00:15:23;68.57;;;36.37;;
5077;SDS011;2557;51.390;7.494;2023-03-20T00:17:49;62.03;;;32.87;;
5077;SDS011;2557;51.390;7.494;2023-03-20T00:20:15;63.70;;;34.47;;
5077;SDS011;2557;51.390;7.494;2023-03-20T00:22:42;63.03;;;30.53;;
5077;SDS011;2557;51.390;7.494;2023-03-20T00:25:11;60.70;;;35.00;;
5077;SDS011;2557;51.390;7.494;2023-03-20T00:27:38;73.10;;;33.93;;
5077;SDS011;2557;51.390;7.494;2023-03-20T00:30:33;61.67;;;32.77;;
5077;SDS011;2557;51.390;7.494;2023-03-20T00:32:52;56.83;;;29.60;;
5077;SDS011;2557;51.390;7.494;2023-03-20T00:35:20;57.40;;;28.33;;
5077;SDS011;2557;51.390;7.494;2023-03-20T00:37:46;52.20;;;29.30;;
5077;SDS011;2557;51.390;7.494;2023-03-20T00:40:12;57.40;;;29.00;;
5077;SDS011;2557;51.390;7.494;2023-03-20T00:42:39;43.30;;;25.70;;
5077;SDS011;2557;51.390;7.494;2023-03-20T00:45:05;49.07;;;27.27;;
5077;SDS011;2557;51.390;7.494;2023-03-20T00:47:31;50.27;;;27.80;;
5077;SDS011;2557;51.390;7.494;2023-03-20T00:50:00;45.87;;;27.70;;
5077;SDS011;2557;51.390;7.494;2023-03-20T00:52:26;47.67;;;26.33;;
5077;SDS011;2557;51.390;7.494;2023-03-20T00:54:52;49.23;;;26.60;;
5077;SDS011;2557;51.390;7.494;2023-03-20T00:57:20;47.07;;;26.53;;
5077;SDS011;2557;51.390;7.494;2023-03-20T01:00:35;44.37;;;27.53;;
5077;SDS011;2557;51.390;7.494;2023-03-20T01:02:34;42.30;;;24.67;;
5077;SDS011;2557;51.390;7.494;2023-03-20T01:05:00;43.40;;;25.63;;
5077;SDS011;2557;51.390;7.494;2023-03-20T01:07:27;44.10;;;26.23;;
5077;SDS011;2557;51.390;7.494;2023-03-20T01:09:53;53.90;;;28.10;;
5077;SDS011;2557;51.390;7.494;2023-03-20T01:12:20;49.83;;;27.63;;
5077;SDS011;2557;51.390;7.494;2023-03-20T01:14:48;53.67;;;28.90;;
5077;SDS011;2557;51.390;7.494;2023-03-20T01:17:19;52.80;;;28.93;;
5077;SDS011;2557;51.390;7.494;2023-03-20T01:19:45;46.10;;;26.10;;
5077;SDS011;2557;51.390;7.494;2023-03-20T01:22:11;51.57;;;27.03;;
5077;SDS011;2557;51.390;7.494;2023-03-20T01:24:38;49.93;;;27.47;;
5077;SDS011;2557;51.390;7.494;2023-03-20T01:27:04;54.90;;;27.50;;
5077;SDS011;2557;51.390;7.494;2023-03-20T01:29:35;47.50;;;26.87;;
5077;SDS011;2557;51.390;7.494;2023-03-20T01:32:01;49.10;;;28.00;;
5077;SDS011;2557;51.390;7.494;2023-03-20T01:34:27;53.20;;;28.80;;
5077;SDS011;2557;51.390;7.494;2023-03-20T01:36:54;53.40;;;28.07;;
5077;SDS011;2557;51.390;7.494;2023-03-20T01:39:31;54.73;;;28.17;;
5077;SDS011;2557;51.390;7.494;2023-03-20T01:41:58;55.97;;;27.40;;
5077;SDS011;2557;51.390;7.494;2023-03-20T01:44:28;51.03;;;28.93;;
5077;SDS011;2557;51.390;7.494;2023-03-20T01:46:55;51.30;;;29.00;;
5077;SDS011;2557;51.390;7.494;2023-03-20T01:51:47;50.70;;;26.90;;
5077;SDS011;2557;51.390;7.494;2023-03-20T01:54:16;51.37;;;24.43;;
5077;SDS011;2557;51.390;7.494;2023-03-20T01:56:47;55.47;;;26.77;;
5077;SDS011;2557;51.390;7.494;2023-03-20T01:59:16;50.53;;;26.83;;
5077;SDS011;2557;51.390;7.494;2023-03-20T02:01:43;47.17;;;27.63;;
5077;SDS011;2557;51.390;7.494;2023-03-20T02:04:10;42.57;;;24.47;;
5077;SDS011;2557;51.390;7.494;2023-03-20T02:06:36;47.97;;;25.30;;
5077;SDS011;2557;51.390;7.494;2023-03-20T02:09:04;43.43;;;23.80;;
5077;SDS011;2557;51.390;7.494;2023-03-20T02:11:30;55.47;;;26.20;;
5077;SDS011;2557;51.390;7.494;2023-03-20T02:13:57;43.13;;;24.27;;
5077;SDS011;2557;51.390;7.494;2023-03-20T02:16:24;38.90;;;20.37;;
5077;SDS011;2557;51.390;7.494;2023-03-20T02:18:50;45.27;;;21.13;;
5077;SDS011;2557;51.390;7.494;2023-03-20T02:44:22;27.43;;;14.90;;
5077;SDS011;2557;51.390;7.494;2023-03-20T02:46:55;23.40;;;13.50;;
5077;SDS011;2557;51.390;7.494;2023-03-20T02:57:03;21.80;;;13.13;;
5077;SDS011;2557;51.390;7.494;2023-03-20T02:59:45;22.80;;;13.23;;
5077;SDS011;2557;51.390;7.494;2023-03-20T03:02:14;26.93;;;11.37;;
5077;SDS011;2557;51.390;7.494;2023-03-20T03:04:43;17.57;;;11.90;;
5077;SDS011;2557;51.390;7.494;2023-03-20T03:07:12;22.00;;;11.90;;
5077;SDS011;2557;51.390;7.494;2023-03-20T03:09:41;23.73;;;12.23;;
5077;SDS011;2557;51.390;7.494;2023-03-20T03:12:20;21.67;;;12.77;;
5077;SDS011;2557;51.390;7.494;2023-03-20T03:14:50;21.27;;;11.90;;
5077;SDS011;2557;51.390;7.494;2023-03-20T03:17:18;21.47;;;12.00;;
5077;SDS011;2557;51.390;7.494;2023-03-20T03:19:46;21.60;;;11.07;;
5077;SDS011;2557;51.390;7.494;2023-03-20T03:22:14;22.27;;;13.60;;
5077;SDS011;2557;51.390;7.494;2023-03-20T03:24:48;18.90;;;11.43;;
5077;SDS011;2557;51.390;7.494;2023-03-20T03:27:18;17.23;;;10.37;;
5077;SDS011;2557;51.390;7.494;2023-03-20T03:29:45;21.27;;;12.20;;
5077;SDS011;2557;51.390;7.494;2023-03-20T03:32:24;22.47;;;11.80;;
5077;SDS011;2557;51.390;7.494;2023-03-20T03:34:50;18.87;;;11.60;;
5077;SDS011;2557;51.390;7.494;2023-03-20T03:37:20;20.00;;;11.83;;
5077;SDS011;2557;51.390;7.494;2023-03-20T03:40:06;22.27;;;13.47;;
5077;SDS011;2557;51.390;7.494;2023-03-20T03:42:36;20.87;;;11.80;;
5077;SDS011;2557;51.390;7.494;2023-03-20T03:47:42;21.90;;;12.50;;
5077;SDS011;2557;51.390;7.494;2023-03-20T03:50:11;20.67;;;11.10;;
5077;SDS011;2557;51.390;7.494;2023-03-20T03:52:39;20.30;;;12.50;;
5077;SDS011;2557;51.390;7.494;2023-03-20T03:55:07;21.53;;;12.07;;
5077;SDS011;2557;51.390;7.494;2023-03-20T03:57:45;20.57;;;11.97;;
5077;SDS011;2557;51.390;7.494;2023-03-20T04:00:12;22.23;;;12.27;;
5077;SDS011;2557;51.390;7.494;2023-03-20T04:02:41;19.37;;;11.83;;
5077;SDS011;2557;51.390;7.494;2023-03-20T04:05:07;24.47;;;12.30;;
5077;SDS011;2557;51.390;7.494;2023-03-20T04:07:33;20.00;;;13.33;;
5077;SDS011;2557;51.390;7.494;2023-03-20T04:10:00;15.20;;;10.97;;
5077;SDS011;2557;51.390;7.494;2023-03-20T04:15:01;16.87;;;11.23;;
5077;SDS011;2557;51.390;7.494;2023-03-20T04:17:28;19.87;;;11.27;;
5077;SDS011;2557;51.390;7.494;2023-03-20T04:19:54;18.30;;;11.53;;
5077;SDS011;2557;51.390;7.494;2023-03-20T04:22:20;20.00;;;11.90;;
5077;SDS011;2557;51.390;7.494;2023-03-20T04:24:46;23.17;;;11.60;;
5077;SDS011;2557;51.390;7.494;2023-03-20T04:27:12;20.73;;;11.80;;
5077;SDS011;2557;51.390;7.494;2023-03-20T04:29:38;19.37;;;10.80;;
5077;SDS011;2557;51.390;7.494;2023-03-20T04:32:04;19.83;;;11.20;;
5077;SDS011;2557;51.390;7.494;2023-03-20T04:34:31;20.97;;;13.40;;
5077;SDS011;2557;51.390;7.494;2023-03-20T04:36:57;18.07;;;11.77;;
5077;SDS011;2557;51.390;7.494;2023-03-20T04:39:25;17.30;;;11.63;;
5077;SDS011;2557;51.390;7.494;2023-03-20T04:41:51;23.40;;;13.53;;
5077;SDS011;2557;51.390;7.494;2023-03-20T04:44:17;16.40;;;11.20;;
5077;SDS011;2557;51.390;7.494;2023-03-20T04:46:43;19.47;;;13.97;;
5077;SDS011;2557;51.390;7.494;2023-03-20T04:49:09;23.57;;;12.87;;
5077;SDS011;2557;51.390;7.494;2023-03-20T04:51:35;20.97;;;12.37;;
5077;SDS011;2557;51.390;7.494;2023-03-20T04:54:01;26.83;;;14.80;;
5077;SDS011;2557;51.390;7.494;2023-03-20T04:56:27;20.23;;;12.00;;
5077;SDS011;2557;51.390;7.494;2023-03-20T04:58:53;24.90;;;14.17;;
5077;SDS011;2557;51.390;7.494;2023-03-20T05:01:19;21.47;;;12.97;;
5077;SDS011;2557;51.390;7.494;2023-03-20T05:03:45;24.73;;;13.83;;
5077;SDS011;2557;51.390;7.494;2023-03-20T05:06:11;26.13;;;14.60;;
5077;SDS011;2557;51.390;7.494;2023-03-20T05:08:37;20.80;;;13.60;;
5077;SDS011;2557;51.390;7.494;2023-03-20T05:11:03;27.73;;;14.80;;
5077;SDS011;2557;51.390;7.494;2023-03-20T05:13:29;25.73;;;13.70;;
5077;SDS011;2557;51.390;7.494;2023-03-20T05:15:55;23.20;;;13.93;;
5077;SDS011;2557;51.390;7.494;2023-03-20T05:18:21;22.03;;;13.90;;
5077;SDS011;2557;51.390;7.494;2023-03-20T05:20:47;24.90;;;14.50;;
5077;SDS011;2557;51.390;7.494;2023-03-20T05:23:13;23.20;;;13.17;;
5077;SDS011;2557;51.390;7.494;2023-03-20T05:25:40;20.03;;;13.20;;
5077;SDS011;2557;51.390;7.494;2023-03-20T05:28:06;19.53;;;13.00;;
5077;SDS011;2557;51.390;7.494;2023-03-20T05:30:32;20.83;;;13.13;;
5077;SDS011;2557;51.390;7.494;2023-03-20T05:32:58;24.57;;;13.70;;
5077;SDS011;2557;51.390;7.494;2023-03-20T05:35:24;20.60;;;13.40;;
5077;SDS011;2557;51.390;7.494;2023-03-20T05:37:50;20.77;;;12.73;;
5077;SDS011;2557;51.390;7.494;2023-03-20T05:40:16;21.50;;;13.20;;
5077;SDS011;2557;51.390;7.494;2023-03-20T05:42:43;24.30;;;15.30;;
5077;SDS011;2557;51.390;7.494;2023-03-20T05:45:10;26.10;;;15.93;;
5077;SDS011;2557;51.390;7.494;2023-03-20T05:47:36;19.20;;;13.33;;
5077;SDS011;2557;51.390;7.494;2023-03-20T05:50:02;19.70;;;12.17;;
5077;SDS011;2557;51.390;7.494;2023-03-20T05:52:29;22.77;;;14.50;;
5077;SDS011;2557;51.390;7.494;2023-03-20T05:54:55;25.47;;;13.20;;
5077;SDS011;2557;51.390;7.494;2023-03-20T05:57:21;23.20;;;14.77;;
5077;SDS011;2557;51.390;7.494;2023-03-20T05:59:47;17.80;;;12.50;;
5077;SDS011;2557;51.390;7.494;2023-03-20T06:02:13;20.17;;;13.70;;
5077;SDS011;2557;51.390;7.494;2023-03-20T06:04:39;22.83;;;13.20;;
5077;SDS011;2557;51.390;7.494;2023-03-20T06:07:05;21.23;;;14.27;;
5077;SDS011;2557;51.390;7.494;2023-03-20T06:09:31;21.67;;;13.83;;
5077;SDS011;2557;51.390;7.494;2023-03-20T06:11:57;20.20;;;13.20;;
5077;SDS011;2557;51.390;7.494;2023-03-20T06:14:23;26.67;;;12.53;;
5077;SDS011;2557;51.390;7.494;2023-03-20T06:16:49;21.23;;;13.27;;
5077;SDS011;2557;51.390;7.494;2023-03-20T06:19:18;21.90;;;12.60;;
5077;SDS011;2557;51.390;7.494;2023-03-20T06:21:44;27.90;;;15.97;;
5077;SDS011;2557;51.390;7.494;2023-03-20T06:24:10;22.10;;;14.70;;
5077;SDS011;2557;51.390;7.494;2023-03-20T06:26:36;22.80;;;14.73;;
5077;SDS011;2557;51.390;7.494;2023-03-20T06:29:02;25.87;;;15.60;;
5077;SDS011;2557;51.390;7.494;2023-03-20T06:31:28;24.07;;;13.90;;
5077;SDS011;2557;51.390;7.494;2023-03-20T06:33:54;26.50;;;15.73;;
5077;SDS011;2557;51.390;7.494;2023-03-20T06:36:20;25.47;;;15.43;;
5077;SDS011;2557;51.390;7.494;2023-03-20T06:38:46;27.03;;;15.90;;
5077;SDS011;2557;51.390;7.494;2023-03-20T06:41:12;26.87;;;16.27;;
5077;SDS011;2557;51.390;7.494;2023-03-20T06:43:38;24.43;;;15.43;;
5077;SDS011;2557;51.390;7.494;2023-03-20T06:46:06;23.03;;;14.17;;
5077;SDS011;2557;51.390;7.494;2023-03-20T06:48:32;26.33;;;14.40;;
5077;SDS011;2557;51.390;7.494;2023-03-20T06:50:58;24.63;;;14.63;;
5077;SDS011;2557;51.390;7.494;2023-03-20T06:53:24;24.77;;;14.50;;
5077;SDS011;2557;51.390;7.494;2023-03-20T06:55:51;25.43;;;15.83;;
5077;SDS011;2557;51.390;7.494;2023-03-20T06:58:18;31.83;;;16.53;;
5077;SDS011;2557;51.390;7.494;2023-03-20T07:00:44;23.80;;;16.00;;
5077;SDS011;2557;51.390;7.494;2023-03-20T07:03:11;28.40;;;16.70;;
5077;SDS011;2557;51.390;7.494;2023-03-20T07:05:37;26.00;;;14.90;;
5077;SDS011;2557;51.390;7.494;2023-03-20T07:08:04;25.73;;;15.17;;
5077;SDS011;2557;51.390;7.494;2023-03-20T07:10:31;24.40;;;14.00;;
5077;SDS011;2557;51.390;7.494;2023-03-20T07:12:57;19.20;;;13.60;;
5077;SDS011;2557;51.390;7.494;2023-03-20T07:15:24;16.67;;;11.40;;
5077;SDS011;2557;51.390;7.494;2023-03-20T07:17:50;20.30;;;12.07;;
5077;SDS011;2557;51.390;7.494;2023-03-20T07:20:17;18.33;;;10.77;;
5077;SDS011;2557;51.390;7.494;2023-03-20T07:22:43;19.00;;;12.10;;
5077;SDS011;2557;51.390;7.494;2023-03-20T07:25:09;16.97;;;10.67;;
5077;SDS011;2557;51.390;7.494;2023-03-20T07:27:36;19.83;;;11.53;;
5077;SDS011;2557;51.390;7.494;2023-03-20T07:30:02;17.57;;;11.93;;
5077;SDS011;2557;51.390;7.494;2023-03-20T07:32:29;17.43;;;11.27;;
5077;SDS011;2557;51.390;7.494;2023-03-20T07:34:55;17.90;;;11.00;;
5077;SDS011;2557;51.390;7.494;2023-03-20T07:37:21;18.47;;;11.60;;
5077;SDS011;2557;51.390;7.494;2023-03-20T07:39:47;17.70;;;11.83;;
5077;SDS011;2557;51.390;7.494;2023-03-20T07:42:13;20.70;;;12.90;;
5077;SDS011;2557;51.390;7.494;2023-03-20T07:44:39;21.07;;;11.60;;
5077;SDS011;2557;51.390;7.494;2023-03-20T07:47:05;15.63;;;11.83;;
5077;SDS011;2557;51.390;7.494;2023-03-20T07:49:31;21.30;;;12.67;;
5077;SDS011;2557;51.390;7.494;2023-03-20T07:51:57;17.03;;;11.57;;
5077;SDS011;2557;51.390;7.494;2023-03-20T07:54:23;17.33;;;11.50;;
5077;SDS011;2557;51.390;7.494;2023-03-20T07:56:49;17.33;;;11.07;;
5077;SDS011;2557;51.390;7.494;2023-03-20T07:59:15;14.70;;;10.47;;
5077;SDS011;2557;51.390;7.494;2023-03-20T08:01:41;16.90;;;11.20;;
5077;SDS011;2557;51.390;7.494;2023-03-20T08:04:08;17.83;;;10.60;;
5077;SDS011;2557;51.390;7.494;2023-03-20T08:06:34;13.80;;;9.17;;
5077;SDS011;2557;51.390;7.494;2023-03-20T08:09:03;16.83;;;9.70;;
5077;SDS011;2557;51.390;7.494;2023-03-20T08:11:29;17.47;;;8.90;;
5077;SDS011;2557;51.390;7.494;2023-03-20T08:13:55;16.47;;;9.00;;
5077;SDS011;2557;51.390;7.494;2023-03-20T08:16:22;13.30;;;7.97;;
5077;SDS011;2557;51.390;7.494;2023-03-20T08:18:48;20.77;;;8.33;;
5077;SDS011;2557;51.390;7.494;2023-03-20T08:21:14;13.80;;;8.23;;
5077;SDS011;2557;51.390;7.494;2023-03-20T08:23:41;12.83;;;7.60;;
5077;SDS011;2557;51.390;7.494;2023-03-20T08:26:07;11.23;;;7.17;;
5077;SDS011;2557;51.390;7.494;2023-03-20T08:28:33;9.67;;;7.57;;
5077;SDS011;2557;51.390;7.494;2023-03-20T08:31:00;11.60;;;6.03;;
5077;SDS011;2557;51.390;7.494;2023-03-20T08:33:26;11.80;;;7.60;;
5077;SDS011;2557;51.390;7.494;2023-03-20T08:35:55;11.80;;;6.37;;
5077;SDS011;2557;51.390;7.494;2023-03-20T08:38:22;13.30;;;6.30;;
5077;SDS011;2557;51.390;7.494;2023-03-20T08:40:48;14.27;;;6.50;;
5077;SDS011;2557;51.390;7.494;2023-03-20T08:43:14;9.93;;;6.10;;
5077;SDS011;2557;51.390;7.494;2023-03-20T08:45:40;12.80;;;6.10;;
5077;SDS011;2557;51.390;7.494;2023-03-20T08:48:06;8.03;;;6.03;;
5077;SDS011;2557;51.390;7.494;2023-03-20T08:50:32;10.83;;;6.70;;
5077;SDS011;2557;51.390;7.494;2023-03-20T08:52:58;12.97;;;6.80;;
5077;SDS011;2557;51.390;7.494;2023-03-20T08:55:25;11.13;;;6.40;;
5077;SDS011;2557;51.390;7.494;2023-03-20T08:57:51;6.60;;;5.47;;
5077;SDS011;2557;51.390;7.494;2023-03-20T09:00:18;8.63;;;6.77;;
5077;SDS011;2557;51.390;7.494;2023-03-20T09:02:45;17.50;;;7.60;;
5077;SDS011;2557;51.390;7.494;2023-03-20T09:05:11;13.40;;;8.00;;
5077;SDS011;2557;51.390;7.494;2023-03-20T09:07:37;16.57;;;8.40;;
5077;SDS011;2557;51.390;7.494;2023-03-20T09:10:03;10.93;;;7.67;;
5077;SDS011;2557;51.390;7.494;2023-03-20T09:12:29;13.83;;;8.90;;
5077;SDS011;2557;51.390;7.494;2023-03-20T09:14:56;13.40;;;8.80;;
5077;SDS011;2557;51.390;7.494;2023-03-20T09:17:23;19.40;;;9.80;;
5077;SDS011;2557;51.390;7.494;2023-03-20T09:19:49;16.60;;;8.60;;
5077;SDS011;2557;51.390;7.494;2023-03-20T09:22:15;14.90;;;9.77;;
5077;SDS011;2557;51.390;7.494;2023-03-20T09:24:44;18.87;;;8.43;;
5077;SDS011;2557;51.390;7.494;2023-03-20T09:27:11;11.63;;;8.40;;
5077;SDS011;2557;51.390;7.494;2023-03-20T09:29:40;12.70;;;9.47;;
5077;SDS011;2557;51.390;7.494;2023-03-20T09:32:07;13.30;;;9.10;;
5077;SDS011;2557;51.390;7.494;2023-03-20T09:34:34;14.33;;;8.47;;
5077;SDS011;2557;51.390;7.494;2023-03-20T09:37:00;16.70;;;11.30;;
5077;SDS011;2557;51.390;7.494;2023-03-20T09:39:27;15.80;;;9.60;;
5077;SDS011;2557;51.390;7.494;2023-03-20T09:41:54;15.07;;;9.77;;
5077;SDS011;2557;51.390;7.494;2023-03-20T09:47:17;13.23;;;10.67;;
5077;SDS011;2557;51.390;7.494;2023-03-20T09:55:01;13.27;;;8.80;;
5077;SDS011;2557;51.390;7.494;2023-03-20T09:57:31;15.37;;;9.63;;
5077;SDS011;2557;51.390;7.494;2023-03-20T10:00:12;13.63;;;9.60;;
5077;SDS011;2557;51.390;7.494;2023-03-20T10:05:17;13.70;;;8.30;;
5077;SDS011;2557;51.390;7.494;2023-03-20T10:07:44;15.17;;;10.10;;
5077;SDS011;2557;51.390;7.494;2023-03-20T10:10:12;14.10;;;8.70;;
5077;SDS011;2557;51.390;7.494;2023-03-20T10:12:45;24.40;;;10.00;;
5077;SDS011;2557;51.390;7.494;2023-03-20T10:15:16;10.17;;;8.70;;
5077;SDS011;2557;51.390;7.494;2023-03-20T10:17:55;16.70;;;9.90;;
5077;SDS011;2557;51.390;7.494;2023-03-20T10:20:32;12.37;;;9.30;;
5077;SDS011;2557;51.390;7.494;2023-03-20T10:23:05;9.73;;;7.57;;
5077;SDS011;2557;51.390;7.494;2023-03-20T10:25:39;10.33;;;7.70;;
5077;SDS011;2557;51.390;7.494;2023-03-20T10:28:11;12.37;;;8.13;;
5077;SDS011;2557;51.390;7.494;2023-03-20T10:38:53;10.20;;;6.63;;
5077;SDS011;2557;51.390;7.494;2023-03-20T10:41:24;9.17;;;6.50;;
5077;SDS011;2557;51.390;7.494;2023-03-20T10:43:53;12.17;;;6.07;;
5077;SDS011;2557;51.390;7.494;2023-03-20T10:46:30;13.93;;;6.30;;
5077;SDS011;2557;51.390;7.494;2023-03-20T10:49:02;8.47;;;6.43;;
5077;SDS011;2557;51.390;7.494;2023-03-20T10:51:35;11.10;;;6.37;;
5077;SDS011;2557;51.390;7.494;2023-03-20T10:54:04;8.93;;;6.50;;
5077;SDS011;2557;51.390;7.494;2023-03-20T10:56:37;6.83;;;6.13;;
5077;SDS011;2557;51.390;7.494;2023-03-20T10:59:16;8.73;;;6.60;;
5077;SDS011;2557;51.390;7.494;2023-03-20T11:01:45;13.70;;;5.30;;
5077;SDS011;2557;51.390;7.494;2023-03-20T11:04:11;8.03;;;6.20;;
5077;SDS011;2557;51.390;7.494;2023-03-20T11:09:22;12.83;;;5.63;;
5077;SDS011;2557;51.390;7.494;2023-03-20T11:11:51;7.77;;;4.77;;
5077;SDS011;2557;51.390;7.494;2023-03-20T11:14:18;9.50;;;5.27;;
5077;SDS011;2557;51.390;7.494;2023-03-20T11:17:03;6.47;;;5.87;;
5077;SDS011;2557;51.390;7.494;2023-03-20T11:19:33;9.03;;;4.60;;
5077;SDS011;2557;51.390;7.494;2023-03-20T11:22:07;6.30;;;5.07;;
5077;SDS011;2557;51.390;7.494;2023-03-20T11:24:38;9.13;;;4.93;;
5077;SDS011;2557;51.390;7.494;2023-03-20T11:27:12;17.83;;;4.87;;
5077;SDS011;2557;51.390;7.494;2023-03-20T11:29:40;9.07;;;4.40;;
5077;SDS011;2557;51.390;7.494;2023-03-20T11:32:15;6.90;;;4.83;;
5077;SDS011;2557;51.390;7.494;2023-03-20T11:34:42;5.03;;;4.60;;
5077;SDS011;2557;51.390;7.494;2023-03-20T11:37:21;8.97;;;5.23;;
5077;SDS011;2557;51.390;7.494;2023-03-20T11:39:55;7.70;;;5.80;;
5077;SDS011;2557;51.390;7.494;2023-03-20T11:42:23;8.20;;;4.57;;
5077;SDS011;2557;51.390;7.494;2023-03-20T11:44:56;7.10;;;4.00;;
5077;SDS011;2557;51.390;7.494;2023-03-20T11:47:24;5.40;;;3.67;;
5077;SDS011;2557;51.390;7.494;2023-03-20T11:49:55;6.93;;;4.00;;
5077;SDS011;2557;51.390;7.494;2023-03-20T11:52:23;9.73;;;4.10;;
5077;SDS011;2557;51.390;7.494;2023-03-20T11:54:51;10.53;;;4.67;;
5077;SDS011;2557;51.390;7.494;2023-03-20T11:57:31;8.60;;;4.83;;
5077;SDS011;2557;51.390;7.494;2023-03-20T12:02:39;4.47;;;4.00;;
5077;SDS011;2557;51.390;7.494;2023-03-20T12:05:27;7.50;;;3.90;;
5077;SDS011;2557;51.390;7.494;2023-03-20T12:07:52;4.70;;;3.70;;
5077;SDS011;2557;51.390;7.494;2023-03-20T12:10:22;5.20;;;3.60;;
5077;SDS011;2557;51.390;7.494;2023-03-20T12:12:55;5.27;;;4.27;;
5077;SDS011;2557;51.390;7.494;2023-03-20T12:15:27;5.43;;;4.87;;
5077;SDS011;2557;51.390;7.494;2023-03-20T12:18:40;5.10;;;3.43;;
5077;SDS011;2557;51.390;7.494;2023-03-20T12:26:30;8.53;;;5.30;;
5077;SDS011;2557;51.390;7.494;2023-03-20T12:29:11;15.40;;;5.33;;
5077;SDS011;2557;51.390;7.494;2023-03-20T12:31:43;12.67;;;5.47;;
5077;SDS011;2557;51.390;7.494;2023-03-20T12:36:38;5.53;;;4.20;;
5077;SDS011;2557;51.390;7.494;2023-03-20T12:39:11;8.37;;;5.40;;
5077;SDS011;2557;51.390;7.494;2023-03-20T12:41:47;9.60;;;4.87;;
5077;SDS011;2557;51.390;7.494;2023-03-20T12:44:20;7.77;;;4.73;;
5077;SDS011;2557;51.390;7.494;2023-03-20T12:49:39;4.77;;;4.33;;
5077;SDS011;2557;51.390;7.494;2023-03-20T12:52:19;5.93;;;4.80;;
5077;SDS011;2557;51.390;7.494;2023-03-20T12:55:03;7.90;;;4.33;;
5077;SDS011;2557;51.390;7.494;2023-03-20T13:05:02;5.53;;;4.77;;
5077;SDS011;2557;51.390;7.494;2023-03-20T13:12:58;8.50;;;5.47;;
5077;SDS011;2557;51.390;7.494;2023-03-20T13:18:04;12.77;;;6.67;;
5077;SDS011;2557;51.390;7.494;2023-03-20T13:20:38;10.23;;;6.10;;
5077;SDS011;2557;51.390;7.494;2023-03-20T13:23:18;7.07;;;6.30;;
5077;SDS011;2557;51.390;7.494;2023-03-20T13:26:10;8.10;;;7.30;;
5077;SDS011;2557;51.390;7.494;2023-03-20T13:34:00;12.77;;;8.30;;
5077;SDS011;2557;51.390;7.494;2023-03-20T13:39:14;7.13;;;6.43;;
5077;SDS011;2557;51.390;7.494;2023-03-20T13:41:43;8.17;;;6.00;;
5077;SDS011;2557;51.390;7.494;2023-03-20T13:44:10;8.03;;;6.30;;
5077;SDS011;2557;51.390;7.494;2023-03-20T13:46:42;9.40;;;7.77;;
5077;SDS011;2557;51.390;7.494;2023-03-20T13:49:18;7.73;;;6.50;;
5077;SDS011;2557;51.390;7.494;2023-03-20T13:51:52;7.40;;;6.70;;
5077;SDS011;2557;51.390;7.494;2023-03-20T13:54:38;6.93;;;6.33;;
5077;SDS011;2557;51.390;7.494;2023-03-20T13:57:17;11.00;;;6.57;;
5077;SDS011;2557;51.390;7.494;2023-03-20T14:02:33;7.97;;;6.33;;
5077;SDS011;2557;51.390;7.494;2023-03-20T14:05:10;15.90;;;6.17;;
5077;SDS011;2557;51.390;7.494;2023-03-20T14:07:37;9.37;;;7.20;;
5077;SDS011;2557;51.390;7.494;2023-03-20T14:15:14;9.90;;;8.67;;
5077;SDS011;2557;51.390;7.494;2023-03-20T14:17:43;12.83;;;9.00;;
5077;SDS011;2557;51.390;7.494;2023-03-20T14:20:10;10.33;;;8.83;;
5077;SDS011;2557;51.390;7.494;2023-03-20T14:22:38;12.03;;;9.70;;
5077;SDS011;2557;51.390;7.494;2023-03-20T14:25:05;14.23;;;9.87;;
5077;SDS011;2557;51.390;7.494;2023-03-20T14:33:29;10.70;;;8.20;;
5077;SDS011;2557;51.390;7.494;2023-03-20T14:38:19;9.87;;;8.17;;
5077;SDS011;2557;51.390;7.494;2023-03-20T14:43:22;8.40;;;6.23;;
5077;SDS011;2557;51.390;7.494;2023-03-20T14:45:51;6.93;;;6.17;;
5077;SDS011;2557;51.390;7.494;2023-03-20T14:53:26;11.10;;;6.57;;
5077;SDS011;2557;51.390;7.494;2023-03-20T14:58:31;13.90;;;5.97;;
5077;SDS011;2557;51.390;7.494;2023-03-20T15:01:01;8.63;;;5.30;;
5077;SDS011;2557;51.390;7.494;2023-03-20T15:03:28;6.27;;;4.97;;
5077;SDS011;2557;51.390;7.494;2023-03-20T15:05:55;7.73;;;6.20;;
5077;SDS011;2557;51.390;7.494;2023-03-20T15:08:23;9.93;;;5.03;;
5077;SDS011;2557;51.390;7.494;2023-03-20T15:10:51;6.07;;;5.00;;
5077;SDS011;2557;51.390;7.494;2023-03-20T15:13:18;5.43;;;4.93;;
5077;SDS011;2557;51.390;7.494;2023-03-20T15:15:55;11.70;;;4.70;;
5077;SDS011;2557;51.390;7.494;2023-03-20T15:18:22;6.30;;;5.00;;
5077;SDS011;2557;51.390;7.494;2023-03-20T15:20:49;5.00;;;4.60;;
5077;SDS011;2557;51.390;7.494;2023-03-20T15:23:15;9.73;;;3.90;;
5077;SDS011;2557;51.390;7.494;2023-03-20T15:25:42;6.43;;;5.23;;
5077;SDS011;2557;51.390;7.494;2023-03-20T15:28:16;7.17;;;3.80;;
5077;SDS011;2557;51.390;7.494;2023-03-20T15:30:44;9.23;;;4.17;;
5077;SDS011;2557;51.390;7.494;2023-03-20T15:33:27;5.93;;;4.10;;
5077;SDS011;2557;51.390;7.494;2023-03-20T15:35:54;7.20;;;3.70;;
5077;SDS011;2557;51.390;7.494;2023-03-20T15:38:20;8.13;;;4.20;;
5077;SDS011;2557;51.390;7.494;2023-03-20T15:40:46;4.80;;;3.60;;
5077;SDS011;2557;51.390;7.494;2023-03-20T15:43:14;8.80;;;5.10;;
5077;SDS011;2557;51.390;7.494;2023-03-20T15:45:42;4.20;;;3.37;;
5077;SDS011;2557;51.390;7.494;2023-03-20T15:48:11;6.57;;;4.40;;
5077;SDS011;2557;51.390;7.494;2023-03-20T15:50:38;5.53;;;3.90;;
5077;SDS011;2557;51.390;7.494;2023-03-20T15:53:05;6.20;;;4.50;;
5077;SDS011;2557;51.390;7.494;2023-03-20T15:55:35;10.60;;;4.27;;
5077;SDS011;2557;51.390;7.494;2023-03-20T15:58:02;8.80;;;4.40;;
5077;SDS011;2557;51.390;7.494;2023-03-20T16:02:55;6.87;;;5.13;;
5077;SDS011;2557;51.390;7.494;2023-03-20T16:05:24;12.03;;;6.07;;
5077;SDS011;2557;51.390;7.494;2023-03-20T16:07:50;9.50;;;6.40;;
5077;SDS011;2557;51.390;7.494;2023-03-20T16:10:17;7.07;;;5.80;;
5077;SDS011;2557;51.390;7.494;2023-03-20T16:12:47;9.40;;;7.23;;
5077;SDS011;2557;51.390;7.494;2023-03-20T16:15:17;10.93;;;7.00;;
5077;SDS011;2557;51.390;7.494;2023-03-20T16:17:43;9.83;;;7.00;;
5077;SDS011;2557;51.390;7.494;2023-03-20T16:20:13;9.50;;;6.63;;
5077;SDS011;2557;51.390;7.494;2023-03-20T16:22:40;7.57;;;6.03;;
5077;SDS011;2557;51.390;7.494;2023-03-20T16:25:16;9.90;;;6.90;;
5077;SDS011;2557;51.390;7.494;2023-03-20T16:27:44;11.23;;;6.00;;
5077;SDS011;2557;51.390;7.494;2023-03-20T16:30:15;17.93;;;6.43;;
5077;SDS011;2557;51.390;7.494;2023-03-20T16:32:43;15.93;;;7.20;;
5077;SDS011;2557;51.390;7.494;2023-03-20T16:35:18;13.43;;;7.27;;
5077;SDS011;2557;51.390;7.494;2023-03-20T16:37:57;7.90;;;5.43;;
5077;SDS011;2557;51.390;7.494;2023-03-20T16:40:28;13.40;;;4.97;;
5077;SDS011;2557;51.390;7.494;2023-03-20T16:43:18;7.73;;;5.70;;
5077;SDS011;2557;51.390;7.494;2023-03-20T16:45:46;13.07;;;5.43;;
5077;SDS011;2557;51.390;7.494;2023-03-20T16:50:40;11.53;;;6.33;;
5077;SDS011;2557;51.390;7.494;2023-03-20T16:53:11;9.27;;;5.50;;
5077;SDS011;2557;51.390;7.494;2023-03-20T16:55:42;12.77;;;6.07;;
5077;SDS011;2557;51.390;7.494;2023-03-20T16:58:09;10.73;;;5.60;;
5077;SDS011;2557;51.390;7.494;2023-03-20T17:00:43;5.60;;;5.10;;
5077;SDS011;2557;51.390;7.494;2023-03-20T17:03:14;10.53;;;5.70;;
5077;SDS011;2557;51.390;7.494;2023-03-20T17:05:46;15.10;;;6.77;;
5077;SDS011;2557;51.390;7.494;2023-03-20T17:08:13;23.10;;;5.80;;
5077;SDS011;2557;51.390;7.494;2023-03-20T17:10:43;10.93;;;6.10;;
5077;SDS011;2557;51.390;7.494;2023-03-20T17:13:12;21.80;;;6.13;;
5077;SDS011;2557;51.390;7.494;2023-03-20T17:15:39;7.40;;;4.80;;